Terminal Aerodrome Forecast
Issued by NWS Wilmington, OH

Current Version | Previous Version | Graphics & Text | Print | Product List | Glossary On
Versions: 1 2 3 4 5 6 7 8 9 10 11 12 13 14 15 16 17 18 19 20 21 22 23 24 25 26 27 28 29 30 31 32 33 34 35 36
000
FTUS41 KILN 231100
TAFCVG
TAF
KCVG 231137Z 2312/2418 19008KT P6SM BKN040 OVC080
      TEMPO 2312/2315 BKN030 OVC080
     FM231500 14010KT P6SM VCSH BKN025 OVC040
      TEMPO 2319/2322 4SM -SHRA BR OVC015
     FM232200 14012G18KT 2SM SHRA BR OVC007
     FM240400 19015KT 5SM -SHRA BR OVC007
     FM240900 20014G25KT P6SM VCSH SCT007 OVC010
     FM241300 22016G28KT P6SM VCSH SCT010 OVC020=

USA.gov is the U.S. government's official web portal to all federal, state and local government web resources and services.